Mount Washington, KY

9:54 AM EDT on August 22, 2014 (GMT -0400)
Autumn Glen Pool Area | Change Station
CLOSE
Current Station
Personal Weather Station
Location: Mount Washington, KY
Elevation: 666 ft
Nearby Weather Stations
Active Advisory: Heat Advisory

Elev 666 ft 38.03 °N, 85.58 °W | Updated 52 seconds ago

Overcast
Overcast
82.6 °F
Feels Like 93 °F
N
4.5
Wind Variable Wind from West
Gusts 10.7 mph

Today
High -- | Low -- °F
--% Chance of Precip.
Yesterday
High -- | Low -- °F
Precip. -- in
7:03 AM 8:26 PM
Waning Crescent, 8% visible
Pressure 30.00 in
Visibility 10.0 miles
Clouds Scattered Clouds 25000 ft
Overcast 30000 ft
Heat Index 93 °F
Dew Point 79 °F
Humidity 89%
Rainfall 0.00 in
Snow Depth Not available.
UV 0 out of 12
Pollen 9.80 out of 12
Ozone Good
PM2.5 Moderate
Flu Activity Not available.
METAR KSDF 221256Z 22005KT 10SM SCT250 OVC300 27/23 A3002 RMK AO2 SLP159 T02670228

More Conditions Fewer Conditions

Pressure 30.00 in
Visibility 10.0 miles
Clouds Scattered Clouds 25000 ft
Overcast 30000 ft
Heat Index 93 °F
Dew Point 79 °F
Humidity 89%
Rainfall 0.00 in
Snow Depth Not available.
UV 0 out of 12
Pollen 9.80 out of 12
Ozone Good
PM2.5 Moderate
Flu Activity Not available.
METAR KSDF 221256Z 22005KT 10SM SCT250 OVC300 27/23 A3002 RMK AO2 SLP159 T02670228

More Conditions Fewer Conditions

10-Day Weather Forecast

Almanac

Astronomy

Aug. 22, 2014 Rise Set
Actual Time 7:03 AM EDT 8:26 PM EDT
Civil Twilight 6:36 AM EDT 8:53 PM EDT
Nautical Twilight 6:02 AM EDT 9:26 PM EDT
Astronomical Twilight 5:28 AM EDT 10:01 PM EDT
Moon 4:26 AM EDT 6:33 PM EDT
Length of Visible Light 14h 17m
Length of Day
13h 22m
Tomorrow will be 2m 15s shorter.
Waning Crescent, 8% of the Moon is Illuminated
Today
Waning Crescent
Aug 25
New
Sep 2
First Quarter
Sep 8
Full
Sep 15
Last Quarter

Today's Extremes

State Highs State Lows

Community

WunderPhotos

Upload Photos

1,746,168 photos uploaded!

Nearby

Air Quality

  Air Quality AQ Index Pollutant
Yesterday Good
PM10
Yesterday Good
OZONE
Current Moderate
PM2.5
Current Good
OZONE
Friday Moderate
PM2.5
Friday Moderate
OZONE

Snow Depth

Station Depth Elevation
No new snow has been reported.

Earthquake Activity

City Distance Mag. Time & Date
No recent earthquake activity has been reported nearby.
Minimum magnitude displayed is 2.5.

Coastal Water Temperatures

Place Temperature
No Stations Reporting

Nearby Weather Stations